sensor_id;sensor_type;location;lat;lon;timestamp;temperature;humidity
61374;DHT22;47242;48.158;-1.586;2023-07-31T04:32:13;18.40;80.70
61374;DHT22;47242;48.158;-1.586;2023-07-31T04:34:42;18.50;80.70
61374;DHT22;47242;48.158;-1.586;2023-07-31T04:37:07;18.50;80.60
61374;DHT22;47242;48.158;-1.586;2023-07-31T04:39:33;18.50;80.60
61374;DHT22;47242;48.158;-1.586;2023-07-31T04:41:58;18.50;80.70
61374;DHT22;47242;48.158;-1.586;2023-07-31T04:44:24;18.50;80.60
61374;DHT22;47242;48.158;-1.586;2023-07-31T04:46:50;18.50;80.70
61374;DHT22;47242;48.158;-1.586;2023-07-31T04:49:15;18.50;80.80
61374;DHT22;47242;48.158;-1.586;2023-07-31T04:51:41;18.50;80.80
61374;DHT22;47242;48.158;-1.586;2023-07-31T04:54:06;18.50;80.80
61374;DHT22;47242;48.158;-1.586;2023-07-31T04:56:32;18.50;81.00
61374;DHT22;47242;48.158;-1.586;2023-07-31T04:58:57;18.60;80.90
61374;DHT22;47242;48.158;-1.586;2023-07-31T05:01:23;18.50;81.00
61374;DHT22;47242;48.158;-1.586;2023-07-31T05:03:49;18.50;81.10
61374;DHT22;47242;48.158;-1.586;2023-07-31T05:06:14;18.60;81.30
61374;DHT22;47242;48.158;-1.586;2023-07-31T05:08:40;18.60;81.20
61374;DHT22;47242;48.158;-1.586;2023-07-31T05:11:06;18.60;81.10
61374;DHT22;47242;48.158;-1.586;2023-07-31T05:13:32;18.60;81.10
61374;DHT22;47242;48.158;-1.586;2023-07-31T05:15:57;18.60;81.20
61374;DHT22;47242;48.158;-1.586;2023-07-31T05:18:23;18.60;81.20
61374;DHT22;47242;48.158;-1.586;2023-07-31T05:20:48;18.60;81.10
61374;DHT22;47242;48.158;-1.586;2023-07-31T05:23:14;18.70;81.00
61374;DHT22;47242;48.158;-1.586;2023-07-31T05:25:40;18.70;81.00
61374;DHT22;47242;48.158;-1.586;2023-07-31T05:28:05;18.70;81.10
61374;DHT22;47242;48.158;-1.586;2023-07-31T05:30:31;18.70;81.20
61374;DHT22;47242;48.158;-1.586;2023-07-31T05:32:57;18.70;81.10
61374;DHT22;47242;48.158;-1.586;2023-07-31T05:35:22;18.70;81.10
61374;DHT22;47242;48.158;-1.586;2023-07-31T05:37:48;18.70;81.20
61374;DHT22;47242;48.158;-1.586;2023-07-31T05:40:14;18.80;81.10
61374;DHT22;47242;48.158;-1.586;2023-07-31T05:42:39;18.80;81.00
61374;DHT22;47242;48.158;-1.586;2023-07-31T05:45:06;18.80;81.00
61374;DHT22;47242;48.158;-1.586;2023-07-31T05:47:32;18.80;80.80
61374;DHT22;47242;48.158;-1.586;2023-07-31T05:49:58;18.80;81.00
61374;DHT22;47242;48.158;-1.586;2023-07-31T05:52:24;18.80;80.90
61374;DHT22;47242;48.158;-1.586;2023-07-31T05:54:49;18.80;81.00
61374;DHT22;47242;48.158;-1.586;2023-07-31T05:57:15;18.90;80.90
61374;DHT22;47242;48.158;-1.586;2023-07-31T05:59:41;18.80;81.00
61374;DHT22;47242;48.158;-1.586;2023-07-31T06:02:07;18.80;81.10
61374;DHT22;47242;48.158;-1.586;2023-07-31T06:04:32;18.90;81.00
61374;DHT22;47242;48.158;-1.586;2023-07-31T06:07:00;18.80;81.00
61374;DHT22;47242;48.158;-1.586;2023-07-31T06:09:26;18.90;80.90
61374;DHT22;47242;48.158;-1.586;2023-07-31T06:11:51;19.00;80.80
61374;DHT22;47242;48.158;-1.586;2023-07-31T06:14:17;19.00;80.50
61374;DHT22;47242;48.158;-1.586;2023-07-31T06:16:43;19.00;80.60
61374;DHT22;47242;48.158;-1.586;2023-07-31T06:19:09;19.00;80.30
61374;DHT22;47242;48.158;-1.586;2023-07-31T06:21:35;19.00;80.40
61374;DHT22;47242;48.158;-1.586;2023-07-31T06:24:03;19.10;80.30
61374;DHT22;47242;48.158;-1.586;2023-07-31T06:26:29;19.20;80.20
61374;DHT22;47242;48.158;-1.586;2023-07-31T06:28:54;19.20;80.10
61374;DHT22;47242;48.158;-1.586;2023-07-31T06:31:20;19.20;80.10
61374;DHT22;47242;48.158;-1.586;2023-07-31T06:33:49;19.10;80.10
61374;DHT22;47242;48.158;-1.586;2023-07-31T06:36:14;19.20;80.00
61374;DHT22;47242;48.158;-1.586;2023-07-31T06:38:40;19.20;80.00
61374;DHT22;47242;48.158;-1.586;2023-07-31T06:41:05;19.30;80.00
61374;DHT22;47242;48.158;-1.586;2023-07-31T06:43:31;19.30;80.00
61374;DHT22;47242;48.158;-1.586;2023-07-31T06:45:57;19.30;79.80
61374;DHT22;47242;48.158;-1.586;2023-07-31T06:48:22;19.30;79.80
61374;DHT22;47242;48.158;-1.586;2023-07-31T06:50:48;19.40;79.60
61374;DHT22;47242;48.158;-1.586;2023-07-31T06:53:14;19.40;79.60
61374;DHT22;47242;48.158;-1.586;2023-07-31T06:55:40;19.30;79.70
61374;DHT22;47242;48.158;-1.586;2023-07-31T06:58:06;19.30;79.80
61374;DHT22;47242;48.158;-1.586;2023-07-31T07:00:32;19.30;79.90
61374;DHT22;47242;48.158;-1.586;2023-07-31T07:02:57;19.30;80.10
61374;DHT22;47242;48.158;-1.586;2023-07-31T07:05:23;19.30;80.10
61374;DHT22;47242;48.158;-1.586;2023-07-31T07:07:50;19.30;80.20
61374;DHT22;47242;48.158;-1.586;2023-07-31T07:10:17;19.30;80.20
61374;DHT22;47242;48.158;-1.586;2023-07-31T07:12:42;19.30;80.10
61374;DHT22;47242;48.158;-1.586;2023-07-31T07:15:08;19.30;80.10
61374;DHT22;47242;48.158;-1.586;2023-07-31T07:17:34;19.30;80.00
61374;DHT22;47242;48.158;-1.586;2023-07-31T07:20:00;19.40;80.00
61374;DHT22;47242;48.158;-1.586;2023-07-31T07:22:26;19.50;79.80
61374;DHT22;47242;48.158;-1.586;2023-07-31T07:24:53;19.50;79.40
61374;DHT22;47242;48.158;-1.586;2023-07-31T07:27:18;19.50;79.50
61374;DHT22;47242;48.158;-1.586;2023-07-31T07:29:45;19.50;79.30
61374;DHT22;47242;48.158;-1.586;2023-07-31T07:32:11;19.50;79.40
61374;DHT22;47242;48.158;-1.586;2023-07-31T07:34:37;19.40;79.60
61374;DHT22;47242;48.158;-1.586;2023-07-31T07:37:03;19.40;79.70
61374;DHT22;47242;48.158;-1.586;2023-07-31T07:39:28;19.40;79.70
61374;DHT22;47242;48.158;-1.586;2023-07-31T07:41:54;19.40;79.80
61374;DHT22;47242;48.158;-1.586;2023-07-31T07:44:20;19.40;79.70
61374;DHT22;47242;48.158;-1.586;2023-07-31T07:46:45;19.40;79.80
61374;DHT22;47242;48.158;-1.586;2023-07-31T07:49:11;19.40;79.80
61374;DHT22;47242;48.158;-1.586;2023-07-31T07:51:37;19.50;79.80
61374;DHT22;47242;48.158;-1.586;2023-07-31T07:54:02;19.60;79.80
61374;DHT22;47242;48.158;-1.586;2023-07-31T07:56:28;19.50;79.80
61374;DHT22;47242;48.158;-1.586;2023-07-31T07:58:54;19.60;80.00
61374;DHT22;47242;48.158;-1.586;2023-07-31T08:01:20;19.50;79.90
61374;DHT22;47242;48.158;-1.586;2023-07-31T08:03:47;19.60;80.00
61374;DHT22;47242;48.158;-1.586;2023-07-31T08:06:12;19.60;79.90
61374;DHT22;47242;48.158;-1.586;2023-07-31T08:08:38;19.60;80.00
61374;DHT22;47242;48.158;-1.586;2023-07-31T08:11:04;19.70;79.90
61374;DHT22;47242;48.158;-1.586;2023-07-31T08:13:30;19.60;80.20
61374;DHT22;47242;48.158;-1.586;2023-07-31T08:15:55;19.70;80.30
61374;DHT22;47242;48.158;-1.586;2023-07-31T08:18:21;19.60;80.10
61374;DHT22;47242;48.158;-1.586;2023-07-31T08:20:47;19.70;80.40
61374;DHT22;47242;48.158;-1.586;2023-07-31T08:23:12;19.70;80.40
61374;DHT22;47242;48.158;-1.586;2023-07-31T08:25:38;19.70;80.30
61374;DHT22;47242;48.158;-1.586;2023-07-31T08:28:05;19.70;80.40
61374;DHT22;47242;48.158;-1.586;2023-07-31T08:30:31;19.80;80.50
61374;DHT22;47242;48.158;-1.586;2023-07-31T08:32:58;19.70;80.70
61374;DHT22;47242;48.158;-1.586;2023-07-31T08:35:25;19.70;80.90
61374;DHT22;47242;48.158;-1.586;2023-07-31T08:37:51;19.70;81.00
61374;DHT22;47242;48.158;-1.586;2023-07-31T08:40:17;19.70;81.40
61374;DHT22;47242;48.158;-1.586;2023-07-31T08:42:46;19.70;82.00
61374;DHT22;47242;48.158;-1.586;2023-07-31T08:45:17;19.60;82.20
61374;DHT22;47242;48.158;-1.586;2023-07-31T08:47:45;19.70;82.30
61374;DHT22;47242;48.158;-1.586;2023-07-31T08:50:13;19.70;82.40
61374;DHT22;47242;48.158;-1.586;2023-07-31T08:52:39;19.70;82.60
61374;DHT22;47242;48.158;-1.586;2023-07-31T08:55:06;19.80;82.90
61374;DHT22;47242;48.158;-1.586;2023-07-31T08:57:32;19.70;83.20
61374;DHT22;47242;48.158;-1.586;2023-07-31T08:59:59;19.70;83.40
61374;DHT22;47242;48.158;-1.586;2023-07-31T09:02:30;19.80;83.10
61374;DHT22;47242;48.158;-1.586;2023-07-31T09:04:57;19.90;82.90
61374;DHT22;47242;48.158;-1.586;2023-07-31T09:07:24;20.00;82.90
61374;DHT22;47242;48.158;-1.586;2023-07-31T09:09:50;20.00;82.50
61374;DHT22;47242;48.158;-1.586;2023-07-31T09:12:16;20.10;82.50
61374;DHT22;47242;48.158;-1.586;2023-07-31T09:14:42;20.10;82.50
61374;DHT22;47242;48.158;-1.586;2023-07-31T09:17:09;20.10;82.60
61374;DHT22;47242;48.158;-1.586;2023-07-31T09:19:36;20.20;82.60
61374;DHT22;47242;48.158;-1.586;2023-07-31T09:22:06;20.10;82.60
61374;DHT22;47242;48.158;-1.586;2023-07-31T09:24:33;20.10;82.70
61374;DHT22;47242;48.158;-1.586;2023-07-31T09:27:00;20.10;82.80
61374;DHT22;47242;48.158;-1.586;2023-07-31T09:29:27;20.20;82.70
61374;DHT22;47242;48.158;-1.586;2023-07-31T09:31:53;20.30;82.50
61374;DHT22;47242;48.158;-1.586;2023-07-31T09:34:20;20.40;82.00
61374;DHT22;47242;48.158;-1.586;2023-07-31T09:36:50;20.50;82.00
61374;DHT22;47242;48.158;-1.586;2023-07-31T09:39:17;20.60;81.80
61374;DHT22;47242;48.158;-1.586;2023-07-31T09:41:47;20.80;81.30
61374;DHT22;47242;48.158;-1.586;2023-07-31T09:44:13;20.90;80.60
61374;DHT22;47242;48.158;-1.586;2023-07-31T09:46:39;21.10;80.30
61374;DHT22;47242;48.158;-1.586;2023-07-31T09:49:11;21.20;79.70
61374;DHT22;47242;48.158;-1.586;2023-07-31T09:51:38;21.30;79.30
61374;DHT22;47242;48.158;-1.586;2023-07-31T09:54:14;21.50;78.80
61374;DHT22;47242;48.158;-1.586;2023-07-31T09:56:45;21.50;78.30
61374;DHT22;47242;48.158;-1.586;2023-07-31T09:59:12;21.50;77.80
61374;DHT22;47242;48.158;-1.586;2023-07-31T10:01:40;21.40;78.10
61374;DHT22;47242;48.158;-1.586;2023-07-31T10:04:08;21.40;78.20
61374;DHT22;47242;48.158;-1.586;2023-07-31T10:06:36;21.30;77.90
61374;DHT22;47242;48.158;-1.586;2023-07-31T10:09:07;21.30;77.80
61374;DHT22;47242;48.158;-1.586;2023-07-31T10:11:45;21.40;77.60
61374;DHT22;47242;48.158;-1.586;2023-07-31T10:14:20;21.40;77.50
61374;DHT22;47242;48.158;-1.586;2023-07-31T10:16:46;21.40;78.30
61374;DHT22;47242;48.158;-1.586;2023-07-31T10:19:12;21.30;78.60
61374;DHT22;47242;48.158;-1.586;2023-07-31T10:21:38;21.20;79.00
61374;DHT22;47242;48.158;-1.586;2023-07-31T10:24:04;21.20;79.60
61374;DHT22;47242;48.158;-1.586;2023-07-31T10:26:31;21.20;80.00
61374;DHT22;47242;48.158;-1.586;2023-07-31T10:28:59;21.10;80.30
61374;DHT22;47242;48.158;-1.586;2023-07-31T10:31:27;21.10;80.70
61374;DHT22;47242;48.158;-1.586;2023-07-31T10:33:55;21.00;80.80
61374;DHT22;47242;48.158;-1.586;2023-07-31T10:36:21;21.00;81.40
61374;DHT22;47242;48.158;-1.586;2023-07-31T10:38:50;21.10;81.50
61374;DHT22;47242;48.158;-1.586;2023-07-31T10:41:18;21.00;81.40
61374;DHT22;47242;48.158;-1.586;2023-07-31T10:43:46;21.10;81.50
61374;DHT22;47242;48.158;-1.586;2023-07-31T10:46:13;21.10;81.50
61374;DHT22;47242;48.158;-1.586;2023-07-31T10:48:40;21.00;82.00
61374;DHT22;47242;48.158;-1.586;2023-07-31T10:51:12;21.00;82.40
61374;DHT22;47242;48.158;-1.586;2023-07-31T10:53:39;21.00;82.90
61374;DHT22;47242;48.158;-1.586;2023-07-31T10:58:33;21.10;82.70
61374;DHT22;47242;48.158;-1.586;2023-07-31T11:01:00;21.50;81.70
61374;DHT22;47242;48.158;-1.586;2023-07-31T11:03:27;21.60;81.90
61374;DHT22;47242;48.158;-1.586;2023-07-31T11:06:05;21.70;81.00
61374;DHT22;47242;48.158;-1.586;2023-07-31T11:08:35;22.00;79.90
61374;DHT22;47242;48.158;-1.586;2023-07-31T11:13:31;22.30;78.50
61374;DHT22;47242;48.158;-1.586;2023-07-31T11:15:57;22.40;77.90
61374;DHT22;47242;48.158;-1.586;2023-07-31T11:18:23;22.30;77.70
61374;DHT22;47242;48.158;-1.586;2023-07-31T11:20:48;22.40;77.50
61374;DHT22;47242;48.158;-1.586;2023-07-31T11:23:18;22.30;77.20
61374;DHT22;47242;48.158;-1.586;2023-07-31T11:25:44;22.20;77.60
61374;DHT22;47242;48.158;-1.586;2023-07-31T11:28:12;22.00;77.70
61374;DHT22;47242;48.158;-1.586;2023-07-31T11:30:39;22.00;78.20
61374;DHT22;47242;48.158;-1.586;2023-07-31T11:33:06;22.00;78.30
61374;DHT22;47242;48.158;-1.586;2023-07-31T11:35:45;22.30;78.00
61374;DHT22;47242;48.158;-1.586;2023-07-31T11:38:31;22.20;77.90
61374;DHT22;47242;48.158;-1.586;2023-07-31T11:40:59;22.10;77.80
61374;DHT22;47242;48.158;-1.586;2023-07-31T11:43:25;21.90;78.00
61374;DHT22;47242;48.158;-1.586;2023-07-31T11:45:54;22.00;78.20
61374;DHT22;47242;48.158;-1.586;2023-07-31T11:48:46;22.10;77.70
61374;DHT22;47242;48.158;-1.586;2023-07-31T11:51:13;21.90;77.40
61374;DHT22;47242;48.158;-1.586;2023-07-31T11:53:58;21.80;78.20
61374;DHT22;47242;48.158;-1.586;2023-07-31T11:56:25;21.80;78.60
61374;DHT22;47242;48.158;-1.586;2023-07-31T11:58:58;21.80;80.60
61374;DHT22;47242;48.158;-1.586;2023-07-31T12:01:25;21.80;80.60
61374;DHT22;47242;48.158;-1.586;2023-07-31T12:03:51;22.00;79.60
61374;DHT22;47242;48.158;-1.586;2023-07-31T12:06:17;22.30;79.80
61374;DHT22;47242;48.158;-1.586;2023-07-31T12:08:43;22.40;78.80
61374;DHT22;47242;48.158;-1.586;2023-07-31T12:11:09;22.70;78.80
61374;DHT22;47242;48.158;-1.586;2023-07-31T12:13:35;22.70;77.50
61374;DHT22;47242;48.158;-1.586;2023-07-31T12:16:02;22.70;77.40
61374;DHT22;47242;48.158;-1.586;2023-07-31T12:18:33;23.00;77.10
61374;DHT22;47242;48.158;-1.586;2023-07-31T12:21:01;23.20;76.10
61374;DHT22;47242;48.158;-1.586;2023-07-31T12:23:29;23.70;74.90
61374;DHT22;47242;48.158;-1.586;2023-07-31T12:31:20;23.80;71.60
61374;DHT22;47242;48.158;-1.586;2023-07-31T12:33:50;23.60;71.30
61374;DHT22;47242;48.158;-1.586;2023-07-31T12:36:21;23.30;71.90
61374;DHT22;47242;48.158;-1.586;2023-07-31T12:38:47;23.10;72.40
61374;DHT22;47242;48.158;-1.586;2023-07-31T12:41:13;22.80;73.10
61374;DHT22;47242;48.158;-1.586;2023-07-31T12:43:40;22.60;73.30
61374;DHT22;47242;48.158;-1.586;2023-07-31T12:46:07;22.70;73.40
61374;DHT22;47242;48.158;-1.586;2023-07-31T12:48:37;22.70;73.30
61374;DHT22;47242;48.158;-1.586;2023-07-31T12:51:02;22.50;73.60
61374;DHT22;47242;48.158;-1.586;2023-07-31T12:53:29;22.40;74.30
61374;DHT22;47242;48.158;-1.586;2023-07-31T12:55:55;22.30;74.80
61374;DHT22;47242;48.158;-1.586;2023-07-31T12:58:21;22.20;75.80
61374;DHT22;47242;48.158;-1.586;2023-07-31T13:00:47;21.90;76.50
61374;DHT22;47242;48.158;-1.586;2023-07-31T13:03:12;21.80;77.50
61374;DHT22;47242;48.158;-1.586;2023-07-31T13:05:38;21.70;77.70
61374;DHT22;47242;48.158;-1.586;2023-07-31T13:08:03;21.80;78.20
61374;DHT22;47242;48.158;-1.586;2023-07-31T13:10:29;21.80;78.20
61374;DHT22;47242;48.158;-1.586;2023-07-31T13:12:55;21.90;78.30
61374;DHT22;47242;48.158;-1.586;2023-07-31T13:15:21;21.90;78.60
61374;DHT22;47242;48.158;-1.586;2023-07-31T13:17:47;22.00;78.70
61374;DHT22;47242;48.158;-1.586;2023-07-31T13:20:12;21.90;78.30
61374;DHT22;47242;48.158;-1.586;2023-07-31T13:22:38;21.80;78.20
61374;DHT22;47242;48.158;-1.586;2023-07-31T13:25:04;21.80;78.60
61374;DHT22;47242;48.158;-1.586;2023-07-31T13:27:30;21.90;78.60
61374;DHT22;47242;48.158;-1.586;2023-07-31T13:29:56;21.80;78.60
61374;DHT22;47242;48.158;-1.586;2023-07-31T13:32:22;21.80;78.90
61374;DHT22;47242;48.158;-1.586;2023-07-31T13:34:48;21.70;79.40
61374;DHT22;47242;48.158;-1.586;2023-07-31T13:37:14;21.60;79.60
61374;DHT22;47242;48.158;-1.586;2023-07-31T13:39:40;21.40;80.30
61374;DHT22;47242;48.158;-1.586;2023-07-31T13:42:07;21.40;80.80
61374;DHT22;47242;48.158;-1.586;2023-07-31T13:44:36;21.40;80.80
61374;DHT22;47242;48.158;-1.586;2023-07-31T13:47:02;21.50;81.30
61374;DHT22;47242;48.158;-1.586;2023-07-31T13:49:29;21.50;81.70
61374;DHT22;47242;48.158;-1.586;2023-07-31T13:51:55;21.50;82.80
61374;DHT22;47242;48.158;-1.586;2023-07-31T13:54:22;21.20;83.60
61374;DHT22;47242;48.158;-1.586;2023-07-31T13:56:48;21.20;83.90
61374;DHT22;47242;48.158;-1.586;2023-07-31T13:59:13;20.90;84.50
61374;DHT22;47242;48.158;-1.586;2023-07-31T14:01:41;20.80;85.00
61374;DHT22;47242;48.158;-1.586;2023-07-31T14:04:07;20.80;85.70
61374;DHT22;47242;48.158;-1.586;2023-07-31T14:06:32;20.80;86.00
61374;DHT22;47242;48.158;-1.586;2023-07-31T14:08:58;20.80;86.00
61374;DHT22;47242;48.158;-1.586;2023-07-31T14:11:23;20.90;86.00
61374;DHT22;47242;48.158;-1.586;2023-07-31T14:13:50;20.90;86.10
61374;DHT22;47242;48.158;-1.586;2023-07-31T14:16:16;20.80;85.80
61374;DHT22;47242;48.158;-1.586;2023-07-31T14:18:41;20.70;86.20
61374;DHT22;47242;48.158;-1.586;2023-07-31T14:21:07;20.80;86.40
61374;DHT22;47242;48.158;-1.586;2023-07-31T14:23:33;20.60;86.70
61374;DHT22;47242;48.158;-1.586;2023-07-31T14:25:59;20.50;87.00
61374;DHT22;47242;48.158;-1.586;2023-07-31T14:28:24;20.40;87.30
61374;DHT22;47242;48.158;-1.586;2023-07-31T14:30:50;20.30;87.30
61374;DHT22;47242;48.158;-1.586;2023-07-31T14:33:16;20.30;87.60
61374;DHT22;47242;48.158;-1.586;2023-07-31T14:35:41;20.30;87.90
61374;DHT22;47242;48.158;-1.586;2023-07-31T14:38:07;20.30;88.20
61374;DHT22;47242;48.158;-1.586;2023-07-31T14:40:32;20.10;88.70
61374;DHT22;47242;48.158;-1.586;2023-07-31T14:42:58;20.10;89.10
61374;DHT22;47242;48.158;-1.586;2023-07-31T14:45:24;19.90;89.60
61374;DHT22;47242;48.158;-1.586;2023-07-31T14:47:49;19.80;90.20
61374;DHT22;47242;48.158;-1.586;2023-07-31T14:50:15;19.80;90.40
61374;DHT22;47242;48.158;-1.586;2023-07-31T14:52:41;19.80;90.90
61374;DHT22;47242;48.158;-1.586;2023-07-31T14:55:07;19.80;90.50
61374;DHT22;47242;48.158;-1.586;2023-07-31T14:57:34;19.80;90.80
61374;DHT22;47242;48.158;-1.586;2023-07-31T14:59:59;19.90;90.70
61374;DHT22;47242;48.158;-1.586;2023-07-31T15:02:26;19.90;90.50
61374;DHT22;47242;48.158;-1.586;2023-07-31T15:04:52;20.00;90.80
61374;DHT22;47242;48.158;-1.586;2023-07-31T15:07:18;20.10;90.60
61374;DHT22;47242;48.158;-1.586;2023-07-31T15:09:44;20.10;89.60
61374;DHT22;47242;48.158;-1.586;2023-07-31T15:12:09;20.10;90.10
61374;DHT22;47242;48.158;-1.586;2023-07-31T15:14:35;20.20;90.10
61374;DHT22;47242;48.158;-1.586;2023-07-31T15:17:01;20.20;89.80
61374;DHT22;47242;48.158;-1.586;2023-07-31T15:19:27;20.30;89.50
61374;DHT22;47242;48.158;-1.586;2023-07-31T15:21:52;20.30;89.40
61374;DHT22;47242;48.158;-1.586;2023-07-31T15:24:18;20.30;89.10
61374;DHT22;47242;48.158;-1.586;2023-07-31T15:26:43;20.40;89.50
61374;DHT22;47242;48.158;-1.586;2023-07-31T15:29:09;20.40;89.30
61374;DHT22;47242;48.158;-1.586;2023-07-31T15:31:40;20.50;89.30
61374;DHT22;47242;48.158;-1.586;2023-07-31T15:34:06;20.60;89.00
61374;DHT22;47242;48.158;-1.586;2023-07-31T15:36:32;20.60;89.00
61374;DHT22;47242;48.158;-1.586;2023-07-31T15:38:58;20.50;88.70
61374;DHT22;47242;48.158;-1.586;2023-07-31T15:41:23;20.40;88.90
61374;DHT22;47242;48.158;-1.586;2023-07-31T15:43:50;20.40;88.90
61374;DHT22;47242;48.158;-1.586;2023-07-31T15:46:17;20.40;89.00
61374;DHT22;47242;48.158;-1.586;2023-07-31T15:48:42;20.40;89.20
61374;DHT22;47242;48.158;-1.586;2023-07-31T15:51:08;20.40;89.00
61374;DHT22;47242;48.158;-1.586;2023-07-31T15:53:34;20.40;89.20
61374;DHT22;47242;48.158;-1.586;2023-07-31T15:55:59;20.40;89.00
61374;DHT22;47242;48.158;-1.586;2023-07-31T15:58:25;20.30;89.00
61374;DHT22;47242;48.158;-1.586;2023-07-31T16:00:51;20.40;89.30
61374;DHT22;47242;48.158;-1.586;2023-07-31T16:03:16;20.30;89.20
61374;DHT22;47242;48.158;-1.586;2023-07-31T16:05:42;20.30;89.30
61374;DHT22;47242;48.158;-1.586;2023-07-31T16:08:08;20.30;89.50
61374;DHT22;47242;48.158;-1.586;2023-07-31T16:10:33;20.30;89.60
61374;DHT22;47242;48.158;-1.586;2023-07-31T16:12:59;20.20;89.50
61374;DHT22;47242;48.158;-1.586;2023-07-31T16:15:25;20.30;89.60
61374;DHT22;47242;48.158;-1.586;2023-07-31T16:17:50;20.30;89.60
61374;DHT22;47242;48.158;-1.586;2023-07-31T16:20:16;20.20;89.70
61374;DHT22;47242;48.158;-1.586;2023-07-31T16:22:42;20.20;89.90
61374;DHT22;47242;48.158;-1.586;2023-07-31T16:25:09;20.20;89.90
61374;DHT22;47242;48.158;-1.586;2023-07-31T16:27:36;20.10;89.80
61374;DHT22;47242;48.158;-1.586;2023-07-31T16:30:01;20.10;90.20
61374;DHT22;47242;48.158;-1.586;2023-07-31T16:32:27;20.10;90.10
61374;DHT22;47242;48.158;-1.586;2023-07-31T16:34:53;20.20;90.00
61374;DHT22;47242;48.158;-1.586;2023-07-31T16:37:19;20.20;89.90
61374;DHT22;47242;48.158;-1.586;2023-07-31T16:39:45;20.00;90.10
61374;DHT22;47242;48.158;-1.586;2023-07-31T16:42:14;20.00;90.30
61374;DHT22;47242;48.158;-1.586;2023-07-31T16:44:40;20.00;90.20
61374;DHT22;47242;48.158;-1.586;2023-07-31T16:47:05;20.00;90.40
61374;DHT22;47242;48.158;-1.586;2023-07-31T16:49:31;20.10;90.40
61374;DHT22;47242;48.158;-1.586;2023-07-31T16:51:57;20.10;90.30
61374;DHT22;47242;48.158;-1.586;2023-07-31T16:54:23;20.10;90.40
61374;DHT22;47242;48.158;-1.586;2023-07-31T16:56:48;20.10;90.20
61374;DHT22;47242;48.158;-1.586;2023-07-31T16:59:16;20.20;90.30
61374;DHT22;47242;48.158;-1.586;2023-07-31T17:01:42;20.20;90.20
61374;DHT22;47242;48.158;-1.586;2023-07-31T17:04:08;20.20;90.10
61374;DHT22;47242;48.158;-1.586;2023-07-31T17:06:33;20.20;90.20
61374;DHT22;47242;48.158;-1.586;2023-07-31T17:09:00;20.10;90.10
61374;DHT22;47242;48.158;-1.586;2023-07-31T17:11:25;20.00;90.00
61374;DHT22;47242;48.158;-1.586;2023-07-31T17:13:51;20.00;90.20
61374;DHT22;47242;48.158;-1.586;2023-07-31T17:16:21;20.00;90.40
61374;DHT22;47242;48.158;-1.586;2023-07-31T17:18:47;20.00;90.40
61374;DHT22;47242;48.158;-1.586;2023-07-31T17:21:13;20.00;90.50
61374;DHT22;47242;48.158;-1.586;2023-07-31T17:23:38;20.00;90.30
61374;DHT22;47242;48.158;-1.586;2023-07-31T17:26:04;20.00;90.40
61374;DHT22;47242;48.158;-1.586;2023-07-31T17:28:31;20.00;90.40
61374;DHT22;47242;48.158;-1.586;2023-07-31T17:30:57;20.00;90.60
61374;DHT22;47242;48.158;-1.586;2023-07-31T17:33:23;20.10;90.50
61374;DHT22;47242;48.158;-1.586;2023-07-31T17:35:49;20.10;90.30
61374;DHT22;47242;48.158;-1.586;2023-07-31T17:38:14;20.00;90.30
61374;DHT22;47242;48.158;-1.586;2023-07-31T17:40:40;20.00;90.50
61374;DHT22;47242;48.158;-1.586;2023-07-31T17:43:06;19.90;90.50
61374;DHT22;47242;48.158;-1.586;2023-07-31T17:45:35;19.90;90.70
61374;DHT22;47242;48.158;-1.586;2023-07-31T17:48:01;19.90;90.80
61374;DHT22;47242;48.158;-1.586;2023-07-31T17:50:26;19.90;90.60
61374;DHT22;47242;48.158;-1.586;2023-07-31T17:52:52;19.90;90.90
61374;DHT22;47242;48.158;-1.586;2023-07-31T17:55:18;19.90;90.80
61374;DHT22;47242;48.158;-1.586;2023-07-31T17:57:44;19.90;91.00
61374;DHT22;47242;48.158;-1.586;2023-07-31T18:00:10;19.80;91.00
61374;DHT22;47242;48.158;-1.586;2023-07-31T18:02:36;19.80;91.00
61374;DHT22;47242;48.158;-1.586;2023-07-31T18:05:05;19.80;91.10
61374;DHT22;47242;48.158;-1.586;2023-07-31T18:07:31;19.80;91.10
61374;DHT22;47242;48.158;-1.586;2023-07-31T18:09:56;19.90;91.10
61374;DHT22;47242;48.158;-1.586;2023-07-31T18:12:22;19.90;91.00
61374;DHT22;47242;48.158;-1.586;2023-07-31T18:14:48;19.90;91.00
61374;DHT22;47242;48.158;-1.586;2023-07-31T18:17:13;19.90;91.20
61374;DHT22;47242;48.158;-1.586;2023-07-31T18:19:39;19.90;91.20
61374;DHT22;47242;48.158;-1.586;2023-07-31T18:22:05;19.90;91.10
61374;DHT22;47242;48.158;-1.586;2023-07-31T18:24:30;19.90;91.00
61374;DHT22;47242;48.158;-1.586;2023-07-31T18:26:56;19.90;90.80
61374;DHT22;47242;48.158;-1.586;2023-07-31T18:29:22;19.80;91.00
61374;DHT22;47242;48.158;-1.586;2023-07-31T18:31:49;19.90;91.20
61374;DHT22;47242;48.158;-1.586;2023-07-31T18:34:14;19.80;90.90
61374;DHT22;47242;48.158;-1.586;2023-07-31T18:36:40;19.80;91.10
61374;DHT22;47242;48.158;-1.586;2023-07-31T18:39:07;19.80;91.00
61374;DHT22;47242;48.158;-1.586;2023-07-31T18:41:33;19.80;91.00
61374;DHT22;47242;48.158;-1.586;2023-07-31T18:43:59;19.80;91.10
61374;DHT22;47242;48.158;-1.586;2023-07-31T18:46:24;19.70;91.00
61374;DHT22;47242;48.158;-1.586;2023-07-31T18:48:50;19.70;91.30
61374;DHT22;47242;48.158;-1.586;2023-07-31T18:51:15;19.70;91.10
61374;DHT22;47242;48.158;-1.586;2023-07-31T18:53:41;19.70;91.20
61374;DHT22;47242;48.158;-1.586;2023-07-31T18:56:07;19.70;91.30
61374;DHT22;47242;48.158;-1.586;2023-07-31T18:58:32;19.60;91.20
61374;DHT22;47242;48.158;-1.586;2023-07-31T19:00:58;19.60;91.30
61374;DHT22;47242;48.158;-1.586;2023-07-31T19:03:23;19.60;91.30
61374;DHT22;47242;48.158;-1.586;2023-07-31T19:05:50;19.60;91.40
61374;DHT22;47242;48.158;-1.586;2023-07-31T19:08:16;19.60;91.50
61374;DHT22;47242;48.158;-1.586;2023-07-31T19:10:42;19.60;91.40
61374;DHT22;47242;48.158;-1.586;2023-07-31T19:13:08;19.50;91.60
61374;DHT22;47242;48.158;-1.586;2023-07-31T19:15:34;19.60;91.70
61374;DHT22;47242;48.158;-1.586;2023-07-31T19:18:01;19.50;91.60
61374;DHT22;47242;48.158;-1.586;2023-07-31T19:20:27;19.50;91.90
61374;DHT22;47242;48.158;-1.586;2023-07-31T19:22:52;19.40;91.90
61374;DHT22;47242;48.158;-1.586;2023-07-31T19:25:18;19.50;92.00
61374;DHT22;47242;48.158;-1.586;2023-07-31T19:27:44;19.40;92.10
61374;DHT22;47242;48.158;-1.586;2023-07-31T19:30:10;19.40;92.00
61374;DHT22;47242;48.158;-1.586;2023-07-31T19:32:35;19.40;92.00
61374;DHT22;47242;48.158;-1.586;2023-07-31T19:35:02;19.40;91.80
61374;DHT22;47242;48.158;-1.586;2023-07-31T19:37:28;19.30;92.00
61374;DHT22;47242;48.158;-1.586;2023-07-31T19:39:56;19.30;92.10
61374;DHT22;47242;48.158;-1.586;2023-07-31T19:42:21;19.40;92.20
61374;DHT22;47242;48.158;-1.586;2023-07-31T19:44:47;19.30;92.10
61374;DHT22;47242;48.158;-1.586;2023-07-31T19:47:12;19.30;92.10
61374;DHT22;47242;48.158;-1.586;2023-07-31T19:49:38;19.30;92.00
61374;DHT22;47242;48.158;-1.586;2023-07-31T19:52:04;19.30;91.90